| time (UTC) | temp C | wind direction | speed KPH | gust KPH | rain 1hr cm | rain 24hr cm | rain mn cm | humidity % | barometer mb |
| 20260507171609 | 12 | 355 | 0.0 | 8.0 | 0.00 | 0.84 | 0.03 | 39 | 1005.4 |
| 20260507170056 | 12 | 331 | 6.4 | 14.5 | 0.00 | 0.84 | 0.03 | 39 | 1005.6 |
| 20260507164606 | 12 | 309 | 1.6 | 14.5 | 0.00 | 0.84 | 0.03 | 47 | 1005.7 |
| 20260507163052 | 12 | 315 | 6.4 | 19.3 | 0.00 | 0.84 | 0.03 | 39 | 1005.8 |
| 20260507161555 | 11 | 319 | 4.8 | 14.5 | 0.00 | 0.84 | 0.03 | 44 | 1006.1 |
| 20260507160059 | 12 | 355 | 8.0 | 16.1 | 0.00 | 0.84 | 0.03 | 39 | 1006.1 |
| 20260507154553 | 11 | 346 | 4.8 | 16.1 | 0.00 | 0.84 | 0.03 | 45 | 1006.2 |
| 20260507153051 | 11 | 23 | 3.2 | 17.7 | 0.00 | 0.84 | 0.03 | 51 | 1006.4 |
| 20260507151553 | 10 | 338 | 4.8 | 16.1 | 0.00 | 0.84 | 0.03 | 54 | 1006.5 |
| 20260507150057 | 10 | 344 | 3.2 | 16.1 | 0.00 | 0.84 | 0.03 | 55 | 1006.6 |
| 20260507144552 | 10 | 309 | 4.8 | 12.9 | 0.00 | 0.84 | 0.03 | 53 | 1006.6 |
| 20260507143104 | 11 | 0 | 0.0 | 12.9 | 0.00 | 0.84 | 0.03 | 55 | 1006.5 |
| 20260507141558 | 10 | 327 | 4.8 | 17.7 | 0.00 | 0.84 | 0.03 | 55 | 1006.6 |
| 20260507140051 | 11 | 355 | 4.8 | 19.3 | 0.00 | 0.84 | 0.03 | 55 | 1006.6 |
| 20260507134600 | 10 | 14 | 6.4 | 17.7 | 0.00 | 0.84 | 0.03 | 56 | 1006.7 |
| 20260507133057 | 11 | 277 | 6.4 | 16.1 | 0.00 | 0.84 | 0.03 | 57 | 1006.8 |
| 20260507131622 | 10 | 351 | 8.0 | 16.1 | 0.00 | 0.84 | 0.03 | 56 | 1007.0 |
| 20260507130100 | 10 | 311 | 6.4 | 14.5 | 0.00 | 0.84 | 0.03 | 55 | 1006.9 |
| 20260507124558 | 10 | 350 | 6.4 | 14.5 | 0.03 | 0.84 | 0.03 | 55 | 1006.8 |
| 20260507123106 | 9 | 360 | 3.2 | 16.1 | 0.03 | 0.84 | 0.03 | 57 | 1006.7 |
| 20260507121608 | 9 | 5 | 3.2 | 16.1 | 0.03 | 0.84 | 0.03 | 58 | 1007.1 |
| 20260507120057 | 8 | 338 | 6.4 | 14.5 | 0.03 | 0.84 | 0.03 | 59 | 1007.2 |
| 20260507114600 | 8 | 286 | 1.6 | 11.3 | 0.00 | 0.81 | 0.00 | 60 | 1007.2 |
| 20260507113100 | 8 | 274 | 3.2 | 14.5 | 0.00 | 0.81 | 0.00 | 63 | 1007.0 |
| 20260507111559 | 7 | 335 | 3.2 | 11.3 | 0.00 | 0.81 | 0.00 | 64 | 1007.0 |
| 20260507110114 | 7 | 0 | 3.2 | 9.7 | 0.00 | 0.81 | 0.00 | 66 | 1006.9 |
| 20260507104551 | 6 | 290 | 0.0 | 8.0 | 0.00 | 0.81 | 0.00 | 68 | 1006.6 |
| 20260507103057 | 6 | 313 | 1.6 | 6.4 | 0.00 | 0.81 | 0.00 | 68 | 1006.6 |
| 20260507101555 | 6 | 0 | 1.6 | 8.0 | 0.00 | 0.81 | 0.00 | 69 | 1007.0 |
| 20260507100052 | 6 | 313 | 1.6 | 9.7 | 0.00 | 0.81 | 0.00 | 70 | 1006.7 |
| 20260507094607 | 6 | 342 | 3.2 | 9.7 | 0.00 | 0.81 | 0.00 | 69 | 1006.9 |
| 20260507093058 | 6 | 298 | 1.6 | 8.0 | 0.00 | 0.81 | 0.00 | 69 | 1006.8 |
| 20260507091631 | 6 | 0 | 3.2 | 8.0 | 0.00 | 0.81 | 0.00 | 69 | 1006.7 |
| 20260507090105 | 6 | 302 | 3.2 | 11.3 | 0.00 | 0.81 | 0.00 | 69 | 1006.2 |
| 20260507084558 | 7 | 324 | 3.2 | 12.9 | 0.00 | 0.81 | 0.00 | 70 | 1006.2 |
| 20260507083053 | 7 | 286 | 1.6 | 12.9 | 0.00 | 0.81 | 0.00 | 71 | 1006.3 |
| 20260507081552 | 7 | 0 | 3.2 | 12.9 | 0.00 | 0.81 | 0.00 | 70 | 1006.1 |
| 20260507080052 | 7 | 294 | 3.2 | 8.0 | 0.00 | 0.81 | 0.00 | 71 | 1006.0 |
| 20260507074553 | 7 | 275 | 0.0 | 8.0 | 0.00 | 0.81 | 0.00 | 72 | 1005.8 |
| 20260507073054 | 7 | 0 | 1.6 | 11.3 | 0.00 | 0.81 | 0.00 | 71 | 1005.6 |
| 20260507071557 | 7 | 315 | 0.0 | 12.9 | 0.00 | 0.81 | 0.00 | 71 | 1005.4 |
| 20260507064551 | 7 | 293 | 3.2 | 12.9 | 0.00 | 0.81 | 0.00 | 72 | 1005.6 |
| 20260507063053 | 7 | 326 | 4.8 | 19.3 | 0.00 | 0.81 | 0.00 | 72 | 1005.8 |
| 20260507061553 | 7 | 294 | 4.8 | 14.5 | 0.00 | 0.81 | 0.00 | 72 | 1005.3 |
| 20260507060104 | 7 | 292 | 4.8 | 16.1 | 0.00 | 0.81 | 0.00 | 72 | 1005.6 |
| 20260507054559 | 7 | 302 | 4.8 | 14.5 | 0.00 | 0.81 | 0.00 | 75 | 1005.7 |
| 20260507053056 | 8 | 306 | 8.0 | 19.3 | 0.00 | 0.81 | 0.00 | 74 | 1005.3 |
| 20260507051556 | 8 | 299 | 4.8 | 19.3 | 0.00 | 0.81 | 0.00 | 76 | 1005.1 |
| 20260507050111 | 8 | 355 | 4.8 | 16.1 | 0.00 | 0.81 | 0.00 | 77 | 1005.0 |
| 20260507044602 | 8 | 278 | 4.8 | 12.9 | 0.00 | 0.81 | 0.00 | 78 | 1005.3 |
| 20260507043058 | 8 | 284 | 3.2 | 12.9 | 0.00 | 0.81 | 0.00 | 78 | 1005.3 |
| 20260507041553 | 8 | 289 | 4.8 | 16.1 | 0.00 | 0.81 | 0.00 | 77 | 1005.6 |
| 20260507040054 | 8 | 292 | 4.8 | 16.1 | 0.03 | 0.81 | 0.00 | 77 | 1005.4 |
| 20260507034558 | 8 | 300 | 3.2 | 12.9 | 0.05 | 0.81 | 0.81 | 77 | 1005.4 |
| 20260507033054 | 9 | 321 | 4.8 | 14.5 | 0.05 | 0.81 | 0.81 | 77 | 1005.3 |
| 20260507031553 | 9 | 286 | 4.8 | 16.1 | 0.05 | 0.81 | 0.81 | 77 | 1005.4 |
| 20260507030053 | 10 | 333 | 6.4 | 20.9 | 0.05 | 0.79 | 0.79 | 76 | 1005.0 |
| 20260507024558 | 10 | 301 | 6.4 | 20.9 | 0.05 | 0.76 | 0.76 | 77 | 1004.9 |
| 20260507023054 | 11 | 294 | 6.4 | 19.3 | 0.08 | 0.76 | 0.76 | 78 | 1004.9 |
| 20260507021557 | 11 | 301 | 4.8 | 17.7 | 0.08 | 0.76 | 0.76 | 78 | 1004.6 |
| 20260507020055 | 12 | 308 | 3.2 | 14.5 | 0.05 | 0.74 | 0.74 | 80 | 1004.6 |
| 20260507014552 | 12 | 337 | 1.6 | 6.4 | 0.15 | 0.71 | 0.71 | 83 | 1004.7 |
| 20260507013054 | 12 | 288 | 3.2 | 8.0 | 0.18 | 0.69 | 0.69 | 83 | 1004.5 |
| 20260507011552 | 12 | 284 | 3.2 | 9.7 | 0.20 | 0.69 | 0.69 | 82 | 1004.5 |
| 20260507010110 | 12 | 289 | 3.2 | 12.9 | 0.20 | 0.69 | 0.69 | 79 | 1004.4 |
| 20260507004553 | 13 | 340 | 3.2 | 12.9 | 0.05 | 0.53 | 0.53 | 72 | 1004.1 |
| 20260507003057 | 15 | 53 | 3.2 | 12.9 | 0.03 | 0.51 | 0.51 | 74 | 1003.5 |
| 20260507001559 | 15 | 351 | 0.0 | 12.9 | 0.00 | 0.48 | 0.48 | 74 | 1003.3 |
| 20260507000101 | 15 | 184 | 4.8 | 19.3 | 0.00 | 0.48 | 0.48 | 74 | 1003.3 |
| 20260506234602 | 15 | 189 | 6.4 | 27.4 | 0.00 | 0.53 | 0.48 | 73 | 1003.1 |
| 20260506233100 | 16 | 276 | 4.8 | 20.9 | 0.00 | 0.53 | 0.48 | 71 | 1003.0 |
| 20260506231552 | 16 | 222 | 6.4 | 22.5 | 0.00 | 0.53 | 0.48 | 70 | 1002.9 |
| 20260506230057 | 16 | 355 | 3.2 | 19.3 | 0.00 | 0.53 | 0.48 | 70 | 1002.8 |
| 20260506224554 | 16 | 200 | 6.4 | 20.9 | 0.00 | 0.53 | 0.48 | 69 | 1003.1 |
| 20260506223059 | 16 | 280 | 6.4 | 19.3 | 0.00 | 0.53 | 0.48 | 69 | 1003.0 |
| 20260506221555 | 16 | 0 | 3.2 | 22.5 | 0.00 | 0.53 | 0.48 | 70 | 1003.2 |
| 20260506220054 | 16 | 198 | 4.8 | 14.5 | 0.00 | 0.53 | 0.48 | 70 | 1003.4 |
| 20260506214601 | 16 | 210 | 1.6 | 19.3 | 0.00 | 0.53 | 0.48 | 71 | 1003.4 |
| 20260506213056 | 16 | 213 | 3.2 | 14.5 | 0.00 | 0.53 | 0.48 | 71 | 1003.5 |
| 20260506211554 | 16 | 216 | 1.6 | 32.2 | 0.00 | 0.53 | 0.48 | 72 | 1003.6 |
| 20260506210053 | 16 | 59 | 3.2 | 14.5 | 0.03 | 0.53 | 0.48 | 73 | 1003.6 |
| 20260506204555 | 16 | 291 | 3.2 | 9.7 | 0.13 | 0.53 | 0.48 | 75 | 1003.7 |
| 20260506203053 | 16 | 0 | 0.0 | 9.7 | 0.18 | 0.53 | 0.48 | 78 | 1004.0 |
| 20260506201553 | 15 | 0 | 3.2 | 9.7 | 0.18 | 0.53 | 0.48 | 78 | 1004.2 |
| 20260506200052 | 15 | 257 | 0.0 | 6.4 | 0.18 | 0.51 | 0.46 | 77 | 1004.2 |
| 20260506194552 | 15 | 0 | 0.0 | 1.6 | 0.10 | 0.41 | 0.36 | 76 | 1004.3 |
| 20260506193052 | 16 | 0 | 0.0 | 3.2 | 0.05 | 0.36 | 0.30 | 74 | 1004.4 |
| 20260506191557 | 16 | 0 | 0.0 | 8.0 | 0.10 | 0.36 | 0.30 | 73 | 1004.6 |
| 20260506190058 | 16 | 165 | 1.6 | 8.0 | 0.10 | 0.30 | 0.25 | 72 | 1004.9 |
| 20260506184558 | 16 | 179 | 3.2 | 11.3 | 0.15 | 0.30 | 0.25 | 72 | 1005.0 |
| 20260506183053 | 16 | 185 | 3.2 | 14.5 | 0.20 | 0.30 | 0.25 | 74 | 1004.9 |
| 20260506181552 | 16 | 0 | 1.6 | 9.7 | 0.18 | 0.25 | 0.20 | 73 | 1005.6 |
| 20260506180055 | 16 | 0 | 3.2 | 9.7 | 0.15 | 0.20 | 0.15 | 71 | 1005.7 |
| 20260506174559 | 17 | 271 | 0.0 | 6.4 | 0.10 | 0.15 | 0.10 | 71 | 1005.7 |
| 20260506173122 | 17 | 0 | 0.0 | 3.2 | 0.05 | 0.10 | 0.05 | 69 | 1005.6 |